Time;durP1;ratioP1;P1;durP2;ratioP2;P2;SDS_P1;SDS_P2;PMS_P1;PMS_P2;Temp;Humidity;BMP_temperature;BMP_pressure;BME280_temperature;BME280_humidity;BME280_pressure;Samples;Min_cycle;Max_cycle;Signal;HPM_P1;HPM_P2
2023/06/30 00:00:18;;;;;;;8.07;3.17;;;;;;;21.09;51.28;99647.28;3182895;27;20043;-75
2023/06/30 00:01:48;;;;;;;7.28;3.63;;;;;;;21.06;51.46;99643.13;3172964;27;20540;-76
2023/06/30 00:03:22;;;;;;;5.47;3.45;;;;;;;21.04;51.44;99642.41;3183482;27;20160;-75
2023/06/30 00:04:54;;;;;;;5.13;3.00;;;;;;;21.02;51.39;99646.16;3183365;27;20047;-72
2023/06/30 00:06:26;;;;;;;7.47;3.53;;;;;;;20.97;51.83;99649.25;3180779;27;20055;-72
2023/06/30 00:07:59;;;;;;;6.88;3.60;;;;;;;20.93;51.87;99647.84;3183370;27;20538;-72
2023/06/30 00:09:31;;;;;;;5.60;3.72;;;;;;;20.85;52.21;99645.91;3158082;28;20056;-72
2023/06/30 00:11:01;;;;;;;9.90;3.72;;;;;;;20.82;52.14;99651.47;3182267;27;20047;-72
2023/06/30 00:12:33;;;;;;;5.57;3.88;;;;;;;20.64;52.46;99631.94;3182996;27;20051;-74
2023/06/30 00:14:05;;;;;;;5.47;3.63;;;;;;;20.67;52.88;99645.75;3183271;27;20047;-74
2023/06/30 00:15:37;;;;;;;6.80;3.70;;;;;;;20.53;53.14;99642.63;3183342;27;20104;-73
2023/06/30 00:17:08;;;;;;;7.63;3.50;;;;;;;20.48;53.36;99643.03;3175401;27;20055;-73
2023/06/30 00:18:40;;;;;;;7.65;4.22;;;;;;;20.39;53.67;99638.56;3174248;27;20069;-73
2023/06/30 00:20:12;;;;;;;6.57;3.22;;;;;;;20.40;53.70;99640.22;3176921;27;20039;-73
2023/06/30 00:21:45;;;;;;;5.18;3.28;;;;;;;20.31;53.72;99638.41;3171692;27;20131;-74
2023/06/30 00:23:17;;;;;;;6.72;3.72;;;;;;;20.27;53.94;99642.31;3176666;27;20051;-74
2023/06/30 00:24:50;;;;;;;9.63;3.40;;;;;;;20.27;54.13;99642.31;3185356;27;20068;-74
2023/06/30 00:26:21;;;;;;;5.50;3.53;;;;;;;20.23;54.09;99634.63;3187289;27;20099;-74
2023/06/30 00:27:53;;;;;;;8.75;3.42;;;;;;;20.22;54.49;99638.22;3185055;27;20530;-74
2023/06/30 00:29:24;;;;;;;10.65;3.80;;;;;;;20.20;54.20;99634.91;3183040;27;20058;-74
2023/06/30 00:30:56;;;;;;;7.65;3.10;;;;;;;20.23;54.16;99634.63;3182512;27;20051;-74
2023/06/30 00:32:31;;;;;;;6.30;3.20;;;;;;;20.25;54.13;99638.94;3183142;27;20535;-74
2023/06/30 00:34:03;;;;;;;6.32;3.50;;;;;;;20.28;54.06;99638.66;3182346;27;20073;-74
2023/06/30 00:35:35;;;;;;;7.05;3.20;;;;;;;20.26;54.04;99638.81;3183222;27;20051;-74
2023/06/30 00:37:08;;;;;;;6.65;3.40;;;;;;;20.25;54.15;99637.13;3174446;27;20055;-74
2023/06/30 00:38:40;;;;;;;9.88;3.47;;;;;;;20.21;54.07;99638.38;3182579;27;20116;-74
2023/06/30 00:40:14;;;;;;;8.02;3.20;;;;;;;20.22;54.32;99638.22;3182892;27;20051;-74
2023/06/30 00:41:46;;;;;;;6.43;3.20;;;;;;;20.22;54.26;99642.69;3182750;27;20133;-74
2023/06/30 00:43:18;;;;;;;6.10;3.30;;;;;;;20.21;54.54;99647.16;3174316;27;20055;-74
2023/06/30 00:44:49;;;;;;;6.30;3.28;;;;;;;20.22;54.30;99643.53;3180022;27;20530;-74
2023/06/30 00:46:21;;;;;;;5.15;3.40;;;;;;;20.20;54.52;99644.63;3182629;27;20070;-74
2023/06/30 00:47:53;;;;;;;9.48;3.75;;;;;;;20.20;54.41;99648.13;3182135;27;20043;-74
2023/06/30 00:49:25;;;;;;;5.00;3.22;;;;;;;20.17;54.47;99651.03;3182893;27;20042;-73
2023/06/30 00:50:57;;;;;;;4.78;3.67;;;;;;;20.15;54.85;99646.84;3182626;27;20054;-72
2023/06/30 00:52:29;;;;;;;6.20;3.65;;;;;;;20.15;54.63;99647.69;3176750;27;20043;-72
2023/06/30 00:54:01;;;;;;;4.53;3.10;;;;;;;20.12;54.70;99649.78;3182982;28;20077;-73
2023/06/30 00:55:34;;;;;;;6.97;3.30;;;;;;;20.09;55.19;99642.09;3182997;28;20477;-73
2023/06/30 00:57:07;;;;;;;6.72;3.40;;;;;;;20.07;55.05;99642.22;3182795;28;20058;-73
2023/06/30 00:58:39;;;;;;;5.88;3.25;;;;;;;20.03;55.10;99648.75;3182900;28;20100;-73
2023/06/30 01:00:12;;;;;;;7.07;3.42;;;;;;;19.98;55.24;99648.31;3180976;28;20051;-74
2023/06/30 01:01:50;;;;;;;8.82;4.07;;;;;;;19.92;55.39;99641.75;3170387;28;20094;-74
2023/06/30 01:03:28;;;;;;;5.32;3.55;;;;;;;19.91;55.39;99645.38;3171758;28;20059;-73
2023/06/30 01:05:06;;;;;;;5.85;3.90;;;;;;;19.90;55.70;99641.03;3182710;28;20104;-74
2023/06/30 01:06:47;;;;;;;8.98;4.00;;;;;;;19.92;55.79;99641.75;3179860;28;20122;-74
2023/06/30 01:08:30;;;;;;;9.07;4.53;;;;;;;19.87;55.66;99636.03;3182681;28;20047;-74
2023/06/30 01:10:07;;;;;;;5.63;3.50;;;;;;;19.88;55.53;99639.53;3182956;28;20072;-75
2023/06/30 01:11:39;;;;;;;5.68;3.75;;;;;;;19.86;55.74;99637.00;3182490;28;20130;-74
2023/06/30 01:13:12;;;;;;;8.10;3.28;;;;;;;19.83;55.76;99645.19;3179439;28;20101;-74
2023/06/30 01:14:44;;;;;;;7.65;3.78;;;;;;;19.83;55.95;99644.38;3182421;28;20047;-74
2023/06/30 01:16:19;;;;;;;6.30;3.67;;;;;;;19.81;55.93;99646.28;3182710;28;20050;-74
2023/06/30 01:17:56;;;;;;;4.13;3.30;;;;;;;19.77;56.17;99643.91;3158334;28;20044;-71
2023/06/30 01:19:34;;;;;;;6.53;4.00;;;;;;;19.70;56.14;99644.56;3182644;28;20717;-69
2023/06/30 01:21:07;;;;;;;8.88;4.82;;;;;;;19.52;56.64;99625.81;3174231;28;20043;-71
2023/06/30 01:22:44;;;;;;;6.85;4.35;;;;;;;19.57;56.73;99644.75;3158239;28;20059;-71
2023/06/30 01:24:21;;;;;;;6.75;4.55;;;;;;;19.50;56.92;99647.09;3182526;28;20134;-71
2023/06/30 01:25:52;;;;;;;5.25;3.88;;;;;;;19.47;57.13;99643.88;3182366;28;20055;-71
2023/06/30 01:27:24;;;;;;;7.00;3.70;;;;;;;19.42;57.09;99643.41;3183065;28;20136;-70
2023/06/30 01:28:57;;;;;;;6.87;4.30;;;;;;;19.35;57.38;99645.75;3182871;28;20047;-71
2023/06/30 01:30:29;;;;;;;8.60;4.50;;;;;;;19.31;57.43;99642.53;3182621;28;20493;-70
2023/06/30 01:32:02;;;;;;;8.40;4.13;;;;;;;19.30;57.58;99646.13;3182459;28;20070;-70
2023/06/30 01:33:35;;;;;;;9.70;4.80;;;;;;;19.31;57.41;99641.66;3182627;28;20377;-71
2023/06/30 01:35:07;;;;;;;8.20;4.32;;;;;;;19.30;57.55;99640.00;3182360;28;20051;-71
2023/06/30 01:36:38;;;;;;;7.15;3.20;;;;;;;19.24;57.83;99637.88;3177895;28;20123;-72
2023/06/30 01:38:10;;;;;;;5.85;3.50;;;;;;;19.16;57.81;99633.22;3177634;28;20051;-72
2023/06/30 01:39:43;;;;;;;4.68;3.70;;;;;;;19.16;58.13;99630.59;3182376;28;20137;-73
2023/06/30 01:41:16;;;;;;;9.20;4.10;;;;;;;19.14;58.01;99634.31;3182103;28;20047;-73
2023/06/30 01:42:48;;;;;;;5.68;3.85;;;;;;;19.16;58.07;99629.75;3177465;28;20058;-73
2023/06/30 01:44:20;;;;;;;5.93;4.00;;;;;;;19.13;58.07;99635.28;3174592;28;20047;-73
2023/06/30 01:45:53;;;;;;;7.53;3.88;;;;;;;19.14;58.10;99635.19;3181861;28;20078;-73
2023/06/30 01:47:24;;;;;;;6.50;3.77;;;;;;;19.14;58.08;99637.81;3182704;28;20074;-73
2023/06/30 01:48:56;;;;;;;7.88;4.00;;;;;;;19.17;57.98;99629.63;3182223;28;20763;-73
2023/06/30 01:50:29;;;;;;;5.90;3.95;;;;;;;19.25;58.04;99640.38;3182099;28;20631;-73
2023/06/30 01:52:01;;;;;;;5.80;4.00;;;;;;;19.27;57.95;99633.16;3176221;28;20524;-73
2023/06/30 01:53:33;;;;;;;5.18;3.80;;;;;;;19.31;57.81;99626.69;3182084;28;20058;-73
2023/06/30 01:55:07;;;;;;;6.15;4.20;;;;;;;19.24;57.69;99607.03;3182517;28;20045;-73
2023/06/30 01:56:47;;;;;;;8.88;4.10;;;;;;;19.37;57.76;99635.88;3157127;28;20048;-74
2023/06/30 01:58:18;;;;;;;5.07;3.92;;;;;;;19.37;57.73;99629.75;3157396;28;20044;-73
2023/06/30 01:59:50;;;;;;;5.20;3.72;;;;;;;19.42;57.70;99635.50;3183094;27;20455;-73
2023/06/30 02:01:22;;;;;;;6.68;3.90;;;;;;;19.43;57.46;99629.22;3174860;27;20062;-72
2023/06/30 02:02:54;;;;;;;7.78;4.63;;;;;;;19.44;57.52;99634.41;3182719;27;20047;-72
2023/06/30 02:04:26;;;;;;;7.63;3.65;;;;;;;19.46;57.56;99634.25;3184796;27;20051;-73
2023/06/30 02:05:58;;;;;;;5.55;3.63;;;;;;;19.47;57.43;99635.94;3184239;27;20062;-72
2023/06/30 02:07:30;;;;;;;6.30;3.58;;;;;;;19.48;57.56;99637.59;3181633;27;20567;-73
2023/06/30 02:09:02;;;;;;;5.63;3.50;;;;;;;19.49;57.63;99639.28;3182185;27;20108;-73
2023/06/30 02:10:35;;;;;;;9.00;3.65;;;;;;;19.49;57.44;99639.28;3179444;27;20051;-73
2023/06/30 02:12:08;;;;;;;4.15;2.97;;;;;;;19.47;57.55;99639.41;3184671;27;20047;-73
2023/06/30 02:13:38;;;;;;;7.78;3.85;;;;;;;19.45;57.67;99646.63;3181252;27;20508;-73
2023/06/30 02:15:11;;;;;;;10.18;3.80;;;;;;;19.44;57.47;99633.56;3184609;27;20051;-73
2023/06/30 02:16:43;;;;;;;10.13;4.53;;;;;;;19.43;57.66;99637.16;3181053;27;20043;-72
2023/06/30 02:18:14;;;;;;;7.45;3.83;;;;;;;19.38;57.85;99637.56;3175528;27;20488;-73
2023/06/30 02:19:45;;;;;;;6.88;3.72;;;;;;;19.38;57.80;99634.09;3184298;27;20500;-74
2023/06/30 02:21:17;;;;;;;7.30;3.72;;;;;;;19.37;57.94;99641.16;3183023;27;20187;-73
2023/06/30 02:22:48;;;;;;;4.72;3.75;;;;;;;19.36;58.07;99638.66;3173323;27;20143;-73
2023/06/30 02:24:20;;;;;;;10.18;3.95;;;;;;;19.36;58.17;99641.28;3173516;27;20047;-73
2023/06/30 02:25:53;;;;;;;6.85;3.45;;;;;;;19.33;57.99;99635.28;3171731;28;20051;-73
2023/06/30 02:27:26;;;;;;;5.88;3.70;;;;;;;19.30;58.16;99642.63;3159527;28;20071;-73
2023/06/30 02:28:57;;;;;;;6.70;3.97;;;;;;;19.28;58.29;99636.63;3183594;27;21020;-73
2023/06/30 02:30:29;;;;;;;7.53;3.50;;;;;;;19.26;58.41;99642.06;3184669;27;20047;-73
2023/06/30 02:32:01;;;;;;;8.18;4.00;;;;;;;19.25;58.33;99636.91;3184566;27;20047;-73
2023/06/30 02:33:32;;;;;;;10.27;3.55;;;;;;;19.24;58.42;99637.88;3184726;27;20051;-73
2023/06/30 02:35:05;;;;;;;10.27;3.70;;;;;;;19.21;58.34;99633.69;3183931;27;20589;-73
2023/06/30 02:36:36;;;;;;;8.02;3.95;;;;;;;19.29;58.32;99647.09;3179956;27;20152;-73
2023/06/30 02:38:07;;;;;;;7.13;3.58;;;;;;;19.30;58.66;99640.84;3171630;28;20058;-74
2023/06/30 02:39:39;;;;;;;7.22;3.85;;;;;;;19.33;58.37;99645.84;3177785;27;20043;-73
2023/06/30 02:41:12;;;;;;;8.63;3.95;;;;;;;19.33;58.44;99643.22;3184132;27;20043;-73
2023/06/30 02:42:43;;;;;;;6.93;4.20;;;;;;;19.27;58.31;99641.09;3179620;27;20459;-73
2023/06/30 02:44:15;;;;;;;14.55;4.22;;;;;;;19.30;58.48;99645.28;3170255;28;20048;-72
2023/06/30 02:45:47;;;;;;;6.32;4.00;;;;;;;19.30;58.45;99645.28;3175257;27;20043;-72
2023/06/30 02:47:18;;;;;;;7.72;4.35;;;;;;;19.30;58.45;99648.75;3183914;27;20059;-72
2023/06/30 02:48:49;;;;;;;8.93;4.32;;;;;;;19.30;58.41;99645.28;3183956;27;20114;-72
2023/06/30 02:50:28;;;;;;;9.18;4.43;;;;;;;19.27;58.55;99656.94;3184432;27;20058;-72
2023/06/30 02:52:00;;;;;;;7.32;3.80;;;;;;;19.18;58.60;99652.41;3177805;27;20409;-72
2023/06/30 02:53:31;;;;;;;6.28;4.32;;;;;;;19.16;58.78;99654.34;3183859;27;20126;-72
2023/06/30 02:55:03;;;;;;;7.80;4.15;;;;;;;19.10;58.92;99652.22;3183495;27;20141;-74
2023/06/30 02:56:36;;;;;;;9.13;4.13;;;;;;;19.13;58.88;99656.41;3183890;27;20772;-73
2023/06/30 02:58:07;;;;;;;7.18;4.35;;;;;;;19.13;59.02;99651.97;3183984;27;20055;-74
2023/06/30 02:59:39;;;;;;;7.05;4.63;;;;;;;19.16;59.10;99662.25;3184034;27;20047;-73
2023/06/30 03:01:10;;;;;;;8.25;4.53;;;;;;;19.18;59.19;99657.69;3176007;27;20047;-73
2023/06/30 03:02:41;;;;;;;7.63;4.40;;;;;;;19.19;58.89;99666.44;3172640;27;20058;-73
2023/06/30 03:04:13;;;;;;;8.20;4.38;;;;;;;19.17;58.92;99658.69;3182101;27;20109;-74
2023/06/30 03:05:46;;;;;;;6.28;4.15;;;;;;;19.13;58.87;99664.31;3177325;27;20050;-73
2023/06/30 03:07:18;;;;;;;7.07;4.03;;;;;;;19.06;59.23;99670.13;3180079;27;20499;-73
2023/06/30 03:08:50;;;;;;;8.52;4.13;;;;;;;18.96;59.16;99661.28;3183828;27;20124;-73
2023/06/30 03:10:21;;;;;;;7.00;4.40;;;;;;;18.91;59.35;99666.09;3178788;27;20281;-72
2023/06/30 03:11:54;;;;;;;11.52;3.55;;;;;;;18.89;59.37;99654.00;3183652;27;20051;-72
2023/06/30 03:13:26;;;;;;;9.70;4.57;;;;;;;18.68;59.28;99638.91;3182730;27;20167;-73
2023/06/30 03:14:58;;;;;;;7.55;4.00;;;;;;;18.82;59.20;99661.59;3183895;27;20108;-73
2023/06/30 03:16:29;;;;;;;6.15;3.95;;;;;;;18.76;59.40;99656.81;3181621;27;20584;-74
2023/06/30 03:18:01;;;;;;;7.57;3.58;;;;;;;18.73;59.44;99662.31;3174735;27;20043;-74
2023/06/30 03:19:33;;;;;;;6.38;3.70;;;;;;;18.72;59.27;99663.25;3183571;27;20043;-74
2023/06/30 03:21:05;;;;;;;6.88;3.67;;;;;;;18.68;59.52;99662.66;3183525;27;20047;-74
2023/06/30 03:22:37;;;;;;;6.45;4.07;;;;;;;18.68;59.48;99654.75;3172666;27;20462;-75
2023/06/30 03:24:09;;;;;;;8.95;4.00;;;;;;;18.69;59.42;99659.06;3183676;27;20142;-75
2023/06/30 03:25:40;;;;;;;8.00;3.67;;;;;;;18.66;59.44;99656.66;3183714;27;20058;-75
2023/06/30 03:27:14;;;;;;;8.40;3.75;;;;;;;18.68;59.41;99656.56;3183575;27;20107;-74
2023/06/30 03:28:46;;;;;;;5.05;3.83;;;;;;;18.68;59.42;99657.38;3183455;27;20413;-74
2023/06/30 03:30:17;;;;;;;8.10;3.63;;;;;;;18.68;59.38;99656.56;3183188;27;20054;-73
2023/06/30 03:31:49;;;;;;;5.10;4.10;;;;;;;18.63;59.51;99655.13;3183552;27;20054;-73
2023/06/30 03:33:21;;;;;;;5.97;3.92;;;;;;;18.58;59.43;99653.84;3183337;27;20476;-73
2023/06/30 03:34:53;;;;;;;11.38;3.95;;;;;;;18.53;59.66;99651.56;3182784;27;20067;-74
2023/06/30 03:36:25;;;;;;;6.68;3.90;;;;;;;18.56;59.71;99655.75;3180621;27;20043;-75
2023/06/30 03:37:56;;;;;;;5.68;4.10;;;;;;;18.50;59.80;99657.06;3176957;27;20066;-75
2023/06/30 03:39:28;;;;;;;6.35;3.90;;;;;;;18.45;59.76;99653.13;3182862;27;20043;-76
2023/06/30 03:41:00;;;;;;;5.80;3.90;;;;;;;18.41;59.90;99656.00;3183033;27;20054;-75
2023/06/30 03:42:33;;;;;;;5.88;3.88;;;;;;;18.41;59.83;99653.38;3181035;27;20059;-76
2023/06/30 03:44:05;;;;;;;;;;;;;;;18.24;60.25;99656.50;3174932;27;20054;-74
2023/06/30 03:45:38;;;;;;;6.40;3.90;;;;;;;18.14;60.46;99630.06;3183704;27;20004;-74
2023/06/30 03:47:09;;;;;;;6.18;3.47;;;;;;;18.32;60.14;99653.28;3183171;27;20045;-74
2023/06/30 03:48:42;;;;;;;7.25;4.10;;;;;;;18.37;60.03;99657.22;3183478;27;20452;-74
2023/06/30 03:50:13;;;;;;;7.57;4.15;;;;;;;18.37;60.18;99657.22;3182918;27;20049;-74
2023/06/30 03:51:45;;;;;;;5.97;3.35;;;;;;;18.41;60.00;99658.66;3183168;27;20047;-73
2023/06/30 03:53:17;;;;;;;5.28;4.18;;;;;;;18.46;59.97;99654.78;3183268;27;20043;-73
2023/06/30 03:54:48;;;;;;;5.38;3.80;;;;;;;18.47;59.86;99651.22;3182096;27;20055;-73
2023/06/30 03:56:20;;;;;;;6.63;3.83;;;;;;;18.52;59.64;99660.44;3183197;27;20272;-74
2023/06/30 03:57:52;;;;;;;6.32;3.92;;;;;;;18.59;59.52;99651.06;3183279;27;20058;-74
2023/06/30 03:59:24;;;;;;;5.80;4.00;;;;;;;18.60;59.54;99652.75;3183408;27;20100;-74
2023/06/30 04:00:56;;;;;;;6.45;3.95;;;;;;;18.61;59.54;99653.59;3180800;27;20043;-74
2023/06/30 04:02:27;;;;;;;8.13;4.10;;;;;;;18.62;59.29;99649.97;3173558;27;20043;-71
2023/06/30 04:03:58;;;;;;;9.95;4.35;;;;;;;18.60;59.48;99651.88;3178613;27;20051;-71
2023/06/30 04:05:30;;;;;;;8.20;3.90;;;;;;;18.58;59.47;99645.91;3179456;27;20055;-74
2023/06/30 04:07:02;;;;;;;8.05;4.40;;;;;;;18.64;59.47;99659.44;3176854;27;20043;-71
2023/06/30 04:08:34;;;;;;;9.93;3.70;;;;;;;18.67;59.52;99652.25;3184258;27;20054;-70
2023/06/30 04:10:06;;;;;;;7.75;4.30;;;;;;;18.70;59.33;99650.19;3184691;27;20043;-70
2023/06/30 04:11:37;;;;;;;8.55;4.70;;;;;;;18.74;59.17;99643.72;3182631;27;20047;-73
2023/06/30 04:13:11;;;;;;;8.65;4.88;;;;;;;18.81;58.95;99650.19;3183375;27;20597;-71
2023/06/30 04:14:43;;;;;;;;;;;;;;;18.71;58.98;99646.59;3183678;27;20512;-70
2023/06/30 04:16:13;;;;;;;12.07;5.10;;;;;;;18.82;59.03;99651.88;3183020;27;19919;-69
2023/06/30 04:17:45;;;;;;;5.85;4.00;;;;;;;18.91;58.75;99650.28;3172502;27;20058;-69
2023/06/30 04:19:16;;;;;;;11.75;6.03;;;;;;;18.95;58.65;99648.22;3182778;27;20043;-70
2023/06/30 04:20:48;;;;;;;10.60;6.35;;;;;;;19.01;58.44;99647.69;3182895;27;20160;-73
2023/06/30 04:22:20;;;;;;;7.72;4.10;;;;;;;19.06;58.30;99654.28;3172381;27;20056;-72
2023/06/30 04:23:52;;;;;;;11.98;4.22;;;;;;;19.09;58.35;99646.09;3180651;27;20112;-72
2023/06/30 04:25:23;;;;;;;7.38;3.90;;;;;;;19.12;58.17;99657.38;3182912;27;20496;-72
2023/06/30 04:26:55;;;;;;;6.50;4.22;;;;;;;19.12;58.05;99657.38;3182807;27;20043;-71
2023/06/30 04:28:28;;;;;;;9.05;4.18;;;;;;;19.09;58.16;99653.19;3182459;27;20099;-69
2023/06/30 04:30:01;;;;;;;9.55;4.13;;;;;;;19.10;58.13;99660.13;3183122;27;20509;-70
2023/06/30 04:31:32;;;;;;;9.45;5.25;;;;;;;19.14;58.02;99655.44;3182997;27;20039;-71
2023/06/30 04:33:04;;;;;;;10.77;5.65;;;;;;;19.18;58.12;99651.59;3183174;27;20123;-66
2023/06/30 04:34:36;;;;;;;5.72;3.92;;;;;;;19.22;57.87;99653.00;3182448;27;20055;-66
2023/06/30 04:36:08;;;;;;;10.57;4.60;;;;;;;19.23;57.90;99655.53;3182763;27;20106;-66
2023/06/30 04:37:40;;;;;;;15.18;5.53;;;;;;;19.25;57.92;99658.84;3183063;27;20067;-69
2023/06/30 04:39:12;;;;;;;6.25;3.95;;;;;;;19.28;57.84;99660.41;3182245;27;20127;-63
2023/06/30 04:40:53;;;;;;;33.25;20.63;;;;;;;19.33;57.83;99656.41;3182913;27;20050;-64
2023/06/30 04:42:27;;;;;;;8.50;5.53;;;;;;;19.37;57.66;99658.78;3181560;27;20564;-71
2023/06/30 04:43:59;;;;;;;8.88;4.90;;;;;;;19.43;57.56;99658.28;3177793;27;20047;-68
2023/06/30 04:45:31;;;;;;;7.70;4.20;;;;;;;19.44;57.55;99654.69;3182955;27;20528;-68
2023/06/30 04:47:03;;;;;;;13.85;4.57;;;;;;;19.47;57.57;99651.78;3182952;27;20137;-67
2023/06/30 04:48:35;;;;;;;13.15;4.50;;;;;;;19.46;57.58;99650.97;3182969;27;20708;-69
2023/06/30 04:50:07;;;;;;;10.35;4.45;;;;;;;19.52;57.59;99657.50;3182872;27;20047;-69
2023/06/30 04:51:39;;;;;;;12.38;4.43;;;;;;;19.56;57.53;99656.28;3175246;27;20104;-68
2023/06/30 04:53:11;;;;;;;5.93;4.30;;;;;;;19.61;57.30;99662.03;3182045;27;20067;-69
2023/06/30 04:54:43;;;;;;;10.55;4.20;;;;;;;19.65;57.17;99663.47;3183016;28;20101;-65
2023/06/30 04:56:14;;;;;;;8.85;4.15;;;;;;;19.66;57.53;99651.91;3182769;28;20050;-65
2023/06/30 04:57:47;;;;;;;9.80;3.85;;;;;;;19.77;57.12;99661.56;3169054;28;20819;-64
2023/06/30 04:59:22;;;;;;;10.18;3.92;;;;;;;19.79;57.03;99662.28;3182282;28;20043;-63
2023/06/30 05:00:55;;;;;;;8.25;4.57;;;;;;;19.78;57.25;99664.06;3176870;28;20147;-63
2023/06/30 05:02:27;;;;;;;8.32;3.75;;;;;;;19.83;57.07;99660.22;3171682;28;20134;-64
2023/06/30 05:03:59;;;;;;;11.38;4.05;;;;;;;19.85;57.11;99658.28;3172663;28;20051;-65
2023/06/30 05:05:32;;;;;;;8.75;4.07;;;;;;;19.92;56.93;99664.72;3181169;28;20039;-64
2023/06/30 05:07:03;;;;;;;7.25;4.30;;;;;;;19.96;57.06;99658.19;3174404;28;20059;-63
2023/06/30 05:08:35;;;;;;;14.10;3.42;;;;;;;20.01;56.71;99661.25;3179777;28;20047;-65
2023/06/30 05:10:09;;;;;;;9.52;4.40;;;;;;;20.05;56.78;99653.91;3182510;28;20435;-64
2023/06/30 05:11:40;;;;;;;;;;;;;;;19.95;56.79;99651.22;3182898;28;20479;-64
2023/06/30 05:13:12;;;;;;;8.68;4.18;;;;;;;20.01;56.94;99653.34;3181661;28;19923;-64
2023/06/30 05:14:46;;;;;;;10.02;4.35;;;;;;;20.14;56.54;99655.75;3173831;28;20096;-64
2023/06/30 05:16:17;;;;;;;;;;;;;;;20.04;56.88;99658.34;3182699;28;20442;-63
2023/06/30 05:17:49;;;;;;;4.82;3.97;;;;;;;20.12;56.71;99650.59;3170356;28;20345;-63
2023/06/30 05:19:21;;;;;;;8.68;3.65;;;;;;;20.23;56.56;99655.78;3182612;28;20416;-63
2023/06/30 05:20:54;;;;;;;7.35;4.65;;;;;;;20.28;56.61;99651.91;3182427;28;20141;-62
2023/06/30 05:22:26;;;;;;;7.38;4.10;;;;;;;20.29;56.35;99650.91;3171095;28;20043;-63
2023/06/30 05:23:58;;;;;;;5.40;3.90;;;;;;;20.34;56.28;99654.81;3178187;28;20397;-63
2023/06/30 05:25:30;;;;;;;9.50;4.68;;;;;;;20.41;56.08;99652.50;3179995;28;20551;-64
2023/06/30 05:27:03;;;;;;;4.43;3.70;;;;;;;20.47;56.13;99657.25;3182254;28;20464;-66
2023/06/30 05:28:36;;;;;;;5.70;3.97;;;;;;;20.52;56.07;99660.31;3182621;28;20050;-63
2023/06/30 05:30:10;;;;;;;12.60;4.40;;;;;;;20.58;55.99;99661.59;3182368;28;20456;-63
2023/06/30 05:31:42;;;;;;;5.72;3.70;;;;;;;20.60;55.97;99652.56;3182250;28;20377;-64
2023/06/30 05:33:14;;;;;;;5.93;3.55;;;;;;;20.71;55.71;99662.19;3182235;28;20108;-64
2023/06/30 05:34:46;;;;;;;8.18;3.90;;;;;;;20.78;55.60;99662.47;3183642;27;20054;-63
2023/06/30 05:36:19;;;;;;;10.93;3.58;;;;;;;20.85;55.25;99661.78;3183239;27;20054;-63
2023/06/30 05:37:51;;;;;;;7.05;3.92;;;;;;;20.93;55.11;99663.72;3177176;27;20043;-63
2023/06/30 05:39:23;;;;;;;4.22;3.28;;;;;;;21.00;54.93;99656.91;3185001;27;20527;-63
2023/06/30 05:40:55;;;;;;;4.20;3.33;;;;;;;21.07;54.70;99660.66;3184864;27;20043;-64
2023/06/30 05:42:27;;;;;;;14.75;3.42;;;;;;;21.06;54.54;99644.91;3182970;27;20047;-64
2023/06/30 05:43:59;;;;;;;8.10;3.40;;;;;;;21.24;54.43;99653.81;3174104;27;20588;-65
2023/06/30 05:45:33;;;;;;;6.63;3.58;;;;;;;21.38;53.86;99665.81;3184674;27;20051;-65
2023/06/30 05:47:05;;;;;;;6.03;3.30;;;;;;;21.44;53.26;99659.09;3184941;27;20051;-62
2023/06/30 05:48:38;;;;;;;4.07;3.13;;;;;;;21.50;53.34;99662.06;3184103;27;20047;-64
2023/06/30 05:50:10;;;;;;;6.32;3.17;;;;;;;21.54;52.96;99658.13;3184254;27;20081;-62
2023/06/30 05:51:42;;;;;;;3.45;2.80;;;;;;;21.60;52.50;99656.72;3179891;27;20047;-64
2023/06/30 05:53:14;;;;;;;10.75;3.85;;;;;;;21.67;52.80;99657.81;3182693;27;20078;-63
2023/06/30 05:54:46;;;;;;;5.20;3.47;;;;;;;21.74;52.23;99661.56;3176477;27;20047;-63
2023/06/30 05:56:18;;;;;;;5.57;3.40;;;;;;;21.78;52.37;99662.09;3184652;27;20062;-64
2023/06/30 05:57:50;;;;;;;7.00;3.30;;;;;;;21.89;52.29;99666.38;3174204;27;20112;-64
2023/06/30 05:59:22;;;;;;;4.25;3.15;;;;;;;21.94;51.75;99659.66;3181911;27;20062;-65
2023/06/30 06:00:55;;;;;;;11.00;3.47;;;;;;;22.01;51.76;99655.47;3178968;27;20066;-67
2023/06/30 06:02:27;;;;;;;;;;;;;;;21.98;52.10;99655.75;3172905;27;20135;-66
2023/06/30 06:03:58;;;;;;;9.18;3.03;;;;;;;22.12;51.44;99662.38;3180325;27;19919;-69
2023/06/30 06:05:30;;;;;;;4.80;3.28;;;;;;;22.20;51.48;99661.69;3184189;27;20129;-69
2023/06/30 06:07:05;;;;;;;6.57;3.08;;;;;;;22.32;51.38;99660.50;3183248;27;20444;-66
2023/06/30 06:08:40;;;;;;;4.03;3.38;;;;;;;22.44;50.71;99666.44;3184202;27;20055;-67
2023/06/30 06:10:12;;;;;;;10.68;3.42;;;;;;;22.49;50.84;99659.69;3178744;27;20051;-66
2023/06/30 06:11:43;;;;;;;6.78;3.70;;;;;;;22.61;50.33;99660.31;3177111;27;20100;-66
2023/06/30 06:13:33;;;;;;;8.63;3.50;;;;;;;22.72;50.22;99661.94;3184071;27;20133;-66
2023/06/30 06:15:06;;;;;;;4.93;2.80;;;;;;;22.81;50.10;99658.38;3184469;27;20417;-67
2023/06/30 06:16:39;;;;;;;8.57;3.55;;;;;;;22.89;49.92;99666.44;3181813;27;20427;-66
2023/06/30 06:18:10;;;;;;;3.75;2.95;;;;;;;22.98;49.77;99663.84;3176896;27;20054;-68
2023/06/30 06:19:42;;;;;;;7.35;4.15;;;;;;;23.04;49.68;99656.13;3184255;27;20467;-63
2023/06/30 06:21:14;;;;;;;10.75;4.32;;;;;;;23.12;48.99;99653.53;3183247;27;20047;-64
2023/06/30 06:22:46;;;;;;;9.20;3.50;;;;;;;23.17;49.01;99656.56;3174355;27;20044;-64
2023/06/30 06:24:18;;;;;;;5.63;2.95;;;;;;;23.22;48.73;99649.94;3183804;27;20047;-64
2023/06/30 06:25:50;;;;;;;5.05;3.25;;;;;;;23.24;48.69;99647.97;3184151;27;20051;-64
2023/06/30 06:27:23;;;;;;;9.23;3.90;;;;;;;23.43;48.57;99663.75;3183642;27;20047;-63
2023/06/30 06:28:55;;;;;;;7.60;3.75;;;;;;;23.51;48.11;99654.97;3184227;27;20051;-63
2023/06/30 06:30:27;;;;;;;9.45;3.30;;;;;;;23.60;47.76;99649.56;3183762;27;20060;-63
2023/06/30 06:32:00;;;;;;;5.47;3.50;;;;;;;23.77;47.44;99645.19;3184082;27;20127;-64
2023/06/30 06:33:31;;;;;;;;;;;;;;;23.78;47.88;99644.22;3184573;27;20531;-64
2023/06/30 06:35:06;;;;;;;9.55;3.50;;;;;;;23.94;47.21;99646.13;3184434;27;19923;-64
2023/06/30 06:36:42;;;;;;;3.75;2.80;;;;;;;24.01;46.77;99648.97;3179590;27;20066;-63
2023/06/30 06:38:22;;;;;;;7.32;3.30;;;;;;;24.08;46.83;99647.34;3179741;27;20066;-63
2023/06/30 06:39:57;;;;;;;5.03;3.10;;;;;;;24.14;46.90;99649.38;3183819;27;20519;-63
2023/06/30 06:41:32;;;;;;;6.68;3.10;;;;;;;24.28;46.29;99650.56;3184155;27;20047;-61
2023/06/30 06:43:09;;;;;;;7.00;3.90;;;;;;;24.38;46.33;99647.78;3176910;27;20097;-63
2023/06/30 06:45:05;;;;;;;;;;;;;;;;;;;;;
2023/06/30 06:47:36;;;;;;;6.45;3.00;;;;;;;24.50;45.59;99642.03;3174937;27;20433;-62
2023/06/30 06:51:12;;;;;;;6.07;3.08;;;;;;;24.62;44.92;99650.53;3174571;27;20592;-62
2023/06/30 06:53:01;;;;;;;4.45;2.95;;;;;;;24.65;44.34;99646.72;3173208;27;20079;-62
2023/06/30 06:54:38;;;;;;;3.15;2.60;;;;;;;24.71;44.17;99646.91;3170391;27;20051;-63
2023/06/30 06:56:14;;;;;;;5.97;2.78;;;;;;;24.75;43.40;99642.91;3176748;27;20073;-62
2023/06/30 06:57:55;;;;;;;5.82;3.20;;;;;;;24.79;43.38;99648.75;3179718;27;20062;-62
2023/06/30 06:59:32;;;;;;;4.22;2.80;;;;;;;24.80;43.37;99645.06;3181929;27;20066;-62
2023/06/30 07:01:05;;;;;;;8.18;2.92;;;;;;;24.86;42.93;99638.25;3182289;27;20067;-62
2023/06/30 07:02:37;;;;;;;5.13;3.27;;;;;;;24.91;43.31;99634.09;3177968;27;20057;-61
2023/06/30 07:04:11;;;;;;;3.08;2.47;;;;;;;25.07;42.82;99641.25;3183781;27;20047;-63
2023/06/30 07:05:43;;;;;;;3.95;2.88;;;;;;;25.18;42.31;99643.63;3183739;27;20101;-64
2023/06/30 07:07:15;;;;;;;3.35;2.67;;;;;;;25.24;41.61;99644.78;3176029;27;20105;-64
2023/06/30 07:08:48;;;;;;;3.15;2.33;;;;;;;25.28;41.81;99645.28;3183534;27;20051;-65
2023/06/30 07:10:19;;;;;;;3.50;2.45;;;;;;;25.29;41.47;99642.47;3173877;27;20043;-64
2023/06/30 07:11:52;;;;;;;3.67;2.78;;;;;;;25.34;41.39;99640.09;3183190;27;20081;-64
2023/06/30 07:13:24;;;;;;;4.18;3.10;;;;;;;25.37;41.36;99637.09;3183466;27;20532;-65
2023/06/30 07:14:55;;;;;;;6.95;2.90;;;;;;;25.41;41.19;99640.28;3183906;27;20108;-66
2023/06/30 07:16:28;;;;;;;3.42;2.88;;;;;;;25.50;41.04;99635.78;3182139;27;20195;-66
2023/06/30 07:18:01;;;;;;;3.45;2.85;;;;;;;25.58;40.80;99636.56;3180512;27;20482;-65
2023/06/30 07:19:37;;;;;;;4.00;2.78;;;;;;;25.68;40.63;99631.06;3183585;27;20134;-65